Time;durP1;ratioP1;P1;durP2;ratioP2;P2;SDS_P1;SDS_P2;PMS_P1;PMS_P2;Temp;Humidity;BMP_temperature;BMP_pressure;BME280_temperature;BME280_humidity;BME280_pressure;Samples;Min_cycle;Max_cycle;Signal;HPM_P1;HPM_P2
2023/04/24 00:00:05;;;;;;;3.80;1.30;;;;;;;;;;5015044;28;20223;-86
2023/04/24 00:02:32;;;;;;;1.70;1.60;;;;;;;;;;5015618;28;20204;-86
2023/04/24 00:05:04;;;;;;;1.47;1.37;;;;;;;;;;5013184;28;20231;-87
2023/04/24 00:07:31;;;;;;;1.70;1.60;;;;;;;;;;5005765;28;20547;-85
2023/04/24 00:09:58;;;;;;;1.50;1.40;;;;;;;;;;5014748;28;20235;-86
2023/04/24 00:12:26;;;;;;;1.60;1.50;;;;;;;;;;5015433;28;20560;-86
2023/04/24 00:14:53;;;;;;;2.67;1.50;;;;;;;;;;5014714;28;20253;-87
2023/04/24 00:17:20;;;;;;;1.70;1.53;;;;;;;;;;5017030;28;20219;-87
2023/04/24 00:19:47;;;;;;;1.83;1.50;;;;;;;;;;5015836;28;20223;-87
2023/04/24 00:22:16;;;;;;;2.07;1.57;;;;;;;;;;5014465;28;20238;-86
2023/04/24 00:24:43;;;;;;;2.03;1.87;;;;;;;;;;5015446;28;20206;-87
2023/04/24 00:27:10;;;;;;;1.67;1.50;;;;;;;;;;5014800;28;20234;-87
2023/04/24 00:29:37;;;;;;;1.53;1.43;;;;;;;;;;5014862;28;20238;-87
2023/04/24 00:32:04;;;;;;;3.63;1.60;;;;;;;;;;5015973;28;20231;-86
2023/04/24 00:34:32;;;;;;;1.60;1.50;;;;;;;;;;5014923;28;20203;-87
2023/04/24 00:36:59;;;;;;;1.43;1.33;;;;;;;;;;5014999;28;20234;-87
2023/04/24 00:39:27;;;;;;;1.40;1.30;;;;;;;;;;5014801;28;20701;-87
2023/04/24 00:41:55;;;;;;;1.50;1.40;;;;;;;;;;5015664;28;20231;-87
2023/04/24 00:44:22;;;;;;;3.47;2.20;;;;;;;;;;5007967;28;20204;-86
2023/04/24 00:46:54;;;;;;;1.87;1.70;;;;;;;;;;5015366;28;20227;-86
2023/04/24 00:49:21;;;;;;;1.90;1.80;;;;;;;;;;5014416;28;20297;-86
2023/04/24 00:51:49;;;;;;;1.73;1.47;;;;;;;;;;5013797;28;20231;-86
2023/04/24 00:54:16;;;;;;;1.67;1.57;;;;;;;;;;5013929;28;20212;-87
2023/04/24 00:56:45;;;;;;;1.60;1.50;;;;;;;;;;5013930;28;20238;-86
2023/04/24 00:59:13;;;;;;;1.80;1.60;;;;;;;;;;5006468;28;20231;-88
2023/04/24 01:01:41;;;;;;;1.60;1.43;;;;;;;;;;5012330;28;20238;-86
2023/04/24 01:04:21;;;;;;;1.90;1.50;;;;;;;;;;5010041;28;20222;-85
2023/04/24 01:06:50;;;;;;;1.67;1.50;;;;;;;;;;5006558;28;20234;-87
2023/04/24 01:09:18;;;;;;;1.33;1.23;;;;;;;;;;5014496;28;20261;-87
2023/04/24 01:11:46;;;;;;;1.93;1.60;;;;;;;;;;5013839;28;20326;-86
2023/04/24 01:14:13;;;;;;;1.50;1.40;;;;;;;;;;5014122;28;20203;-87
2023/04/24 01:16:41;;;;;;;2.07;1.47;;;;;;;;;;5013916;28;20235;-87
2023/04/24 01:19:08;;;;;;;1.93;1.63;;;;;;;;;;5014193;28;20234;-86
2023/04/24 01:21:37;;;;;;;1.83;1.63;;;;;;;;;;5012892;28;20239;-87
2023/04/24 01:24:07;;;;;;;2.60;1.77;;;;;;;;;;5012339;28;20210;-87
2023/04/24 01:26:35;;;;;;;1.90;1.40;;;;;;;;;;5013492;28;20747;-87
2023/04/24 01:29:02;;;;;;;1.27;1.20;;;;;;;;;;5013550;28;20223;-86
2023/04/24 01:31:30;;;;;;;2.87;1.43;;;;;;;;;;5010460;28;20246;-86
2023/04/24 01:33:57;;;;;;;1.77;1.47;;;;;;;;;;5008379;28;20629;-86
2023/04/24 01:36:25;;;;;;;2.20;1.50;;;;;;;;;;5013030;28;20612;-87
2023/04/24 01:38:52;;;;;;;3.20;1.53;;;;;;;;;;5014079;28;20234;-86
2023/04/24 01:41:21;;;;;;;5.20;1.53;;;;;;;;;;5013082;28;20235;-86
2023/04/24 01:43:48;;;;;;;2.03;1.70;;;;;;;;;;5015974;28;20238;-86
2023/04/24 01:46:15;;;;;;;1.50;1.40;;;;;;;;;;5011405;28;20238;-86
2023/04/24 01:48:42;;;;;;;2.13;1.43;;;;;;;;;;5013479;28;20231;-86
2023/04/24 01:51:10;;;;;;;1.43;1.30;;;;;;;;;;5012910;28;20242;-86
2023/04/24 01:53:37;;;;;;;2.93;1.40;;;;;;;;;;5013373;28;20207;-86
2023/04/24 01:56:04;;;;;;;1.47;1.37;;;;;;;;;;5012795;28;20227;-87
2023/04/24 01:58:32;;;;;;;4.03;1.53;;;;;;;;;;5012454;28;20211;-87
2023/04/24 02:01:00;;;;;;;3.33;1.53;;;;;;;;;;5012449;28;20242;-86
2023/04/24 02:03:27;;;;;;;1.60;1.20;;;;;;;;;;5013636;28;20204;-86
2023/04/24 02:05:54;;;;;;;2.07;1.30;;;;;;;;;;5012856;28;20233;-86
2023/04/24 02:08:21;;;;;;;1.60;1.50;;;;;;;;;;5013384;28;20207;-86
2023/04/24 02:10:48;;;;;;;1.27;1.27;;;;;;;;;;5012360;28;20653;-86
2023/04/24 02:13:15;;;;;;;1.87;1.77;;;;;;;;;;5013687;28;20203;-85
2023/04/24 02:15:44;;;;;;;1.60;1.50;;;;;;;;;;5012151;28;20231;-87
2023/04/24 02:18:12;;;;;;;2.30;1.50;;;;;;;;;;5012691;28;20207;-87
2023/04/24 02:20:40;;;;;;;1.03;1.03;;;;;;;;;;5012983;28;20723;-86
2023/04/24 02:23:07;;;;;;;1.30;1.20;;;;;;;;;;5013629;28;20213;-85
2023/04/24 02:25:34;;;;;;;2.30;1.70;;;;;;;;;;5012648;28;20231;-86
2023/04/24 02:28:02;;;;;;;1.70;1.60;;;;;;;;;;5012708;28;20196;-87
2023/04/24 02:30:36;;;;;;;1.97;1.40;;;;;;;;;;5009071;28;20236;-87
2023/04/24 02:33:04;;;;;;;1.60;1.50;;;;;;;;;;5010104;28;20207;-86
2023/04/24 02:35:31;;;;;;;1.57;1.47;;;;;;;;;;5016320;28;20231;-86
2023/04/24 02:37:58;;;;;;;1.80;1.70;;;;;;;;;;5016803;28;20207;-86
2023/04/24 02:40:25;;;;;;;1.67;1.57;;;;;;;;;;5016036;28;20235;-86
2023/04/24 02:42:53;;;;;;;1.20;1.20;;;;;;;;;;5016985;28;20581;-87
2023/04/24 02:45:20;;;;;;;2.20;1.67;;;;;;;;;;5016211;28;20230;-86
2023/04/24 02:47:47;;;;;;;1.70;1.60;;;;;;;;;;5008632;28;20255;-85
2023/04/24 02:50:15;;;;;;;2.70;1.60;;;;;;;;;;5064680;22;20596;-87
2023/04/24 02:52:42;;;;;;;2.47;2.00;;;;;;;;;;5066333;28;20255;-87
2023/04/24 02:55:09;;;;;;;2.43;1.37;;;;;;;;;;5074424;28;20212;-87
2023/04/24 02:57:36;;;;;;;1.80;1.70;;;;;;;;;;5072072;28;20608;-87
2023/04/24 03:00:06;;;;;;;2.57;1.63;;;;;;;;;;5069183;28;20226;-87
2023/04/24 03:02:33;;;;;;;1.97;1.50;;;;;;;;;;5062782;28;20206;-87
2023/04/24 03:05:00;;;;;;;1.40;1.37;;;;;;;;;;5054206;28;20752;-87
2023/04/24 03:07:29;;;;;;;2.40;1.60;;;;;;;;;;5062529;28;20205;-87
2023/04/24 03:09:57;;;;;;;1.60;1.50;;;;;;;;;;5061981;28;20226;-87
2023/04/24 03:12:24;;;;;;;2.50;1.57;;;;;;;;;;5062738;28;20674;-87
2023/04/24 03:14:51;;;;;;;1.73;1.63;;;;;;;;;;5065191;28;20216;-87
2023/04/24 03:17:19;;;;;;;2.70;1.60;;;;;;;;;;5054751;28;20217;-87
2023/04/24 03:19:46;;;;;;;1.30;1.20;;;;;;;;;;5053955;28;20241;-87
2023/04/24 03:22:13;;;;;;;1.60;1.50;;;;;;;;;;5068178;28;20225;-87
2023/04/24 03:24:42;;;;;;;1.57;1.47;;;;;;;;;;5064385;28;20205;-86
2023/04/24 03:27:09;;;;;;;1.83;1.73;;;;;;;;;;5059533;28;20233;-87
2023/04/24 03:29:36;;;;;;;4.23;1.70;;;;;;;;;;5068393;28;20598;-87
2023/04/24 03:32:03;;;;;;;2.37;1.80;;;;;;;;;;5051522;28;20229;-87
2023/04/24 03:34:30;;;;;;;1.53;1.43;;;;;;;;;;5052032;28;20220;-87
2023/04/24 03:36:57;;;;;;;1.13;1.10;;;;;;;;;;5070519;28;20221;-87
2023/04/24 03:39:25;;;;;;;1.60;1.50;;;;;;;;;;5070066;28;20240;-86
2023/04/24 03:41:53;;;;;;;5.40;2.40;;;;;;;;;;5053346;28;20229;-85
2023/04/24 03:44:26;;;;;;;1.93;1.47;;;;;;;;;;5062368;28;20218;-87
2023/04/24 03:46:54;;;;;;;1.73;1.63;;;;;;;;;;5027148;28;20854;-86
2023/04/24 03:49:21;;;;;;;3.47;1.73;;;;;;;;;;5062067;28;20238;-85
2023/04/24 03:51:48;;;;;;;1.30;1.30;;;;;;;;;;5061419;28;20267;-84
2023/04/24 03:54:15;;;;;;;1.80;1.70;;;;;;;;;;5054054;28;20690;-85
2023/04/24 03:56:42;;;;;;;1.60;1.40;;;;;;;;;;5061444;28;20236;-84
2023/04/24 03:59:11;;;;;;;2.43;1.80;;;;;;;;;;5066765;28;20215;-84
2023/04/24 04:01:39;;;;;;;1.53;1.53;;;;;;;;;;5061985;28;20225;-84
2023/04/24 04:04:06;;;;;;;1.70;1.60;;;;;;;;;;5058385;28;20208;-85
2023/04/24 04:06:34;;;;;;;4.70;1.50;;;;;;;;;;5064747;28;20592;-85
2023/04/24 04:09:01;;;;;;;1.70;1.60;;;;;;;;;;5059513;28;20564;-85
2023/04/24 04:11:28;;;;;;;1.90;1.70;;;;;;;;;;5048891;28;20237;-85
2023/04/24 04:13:56;;;;;;;4.90;1.80;;;;;;;;;;5055638;28;20209;-85
2023/04/24 04:16:24;;;;;;;1.30;1.30;;;;;;;;;;5061965;28;20230;-85
2023/04/24 04:18:51;;;;;;;1.53;1.30;;;;;;;;;;5069765;28;20278;-85
2023/04/24 04:21:19;;;;;;;1.93;1.63;;;;;;;;;;5063672;28;20231;-85
2023/04/24 04:23:46;;;;;;;1.60;1.50;;;;;;;;;;5076974;28;20208;-85
2023/04/24 04:26:13;;;;;;;2.50;2.00;;;;;;;;;;5074078;28;20229;-85
2023/04/24 04:28:40;;;;;;;2.43;1.87;;;;;;;;;;5057185;28;20206;-85
2023/04/24 04:31:08;;;;;;;2.57;2.20;;;;;;;;;;5068271;28;20230;-87
2023/04/24 04:33:37;;;;;;;2.07;1.97;;;;;;;;;;5053924;28;20237;-85
2023/04/24 04:36:05;;;;;;;1.90;1.80;;;;;;;;;;5047590;28;20635;-86
2023/04/24 04:38:32;;;;;;;2.27;2.17;;;;;;;;;;5053432;28;20202;-85
2023/04/24 04:40:59;;;;;;;4.03;2.27;;;;;;;;;;5044400;28;20221;-85
2023/04/24 04:43:26;;;;;;;2.10;2.00;;;;;;;;;;5052077;28;20296;-85
2023/04/24 04:45:54;;;;;;;2.70;2.50;;;;;;;;;;5050343;28;20229;-85
2023/04/24 04:48:21;;;;;;;2.70;2.50;;;;;;;;;;5061120;28;20908;-85
2023/04/24 04:50:49;;;;;;;2.97;2.30;;;;;;;;;;5048246;28;20248;-85
2023/04/24 04:53:17;;;;;;;2.00;1.90;;;;;;;;;;5053290;28;20205;-88
2023/04/24 04:55:44;;;;;;;2.40;2.20;;;;;;;;;;5052613;28;20232;-86
2023/04/24 04:58:11;;;;;;;2.90;2.13;;;;;;;;;;5053098;28;20206;-85
2023/04/24 05:00:38;;;;;;;2.83;2.23;;;;;;;;;;5062036;28;20241;-84
2023/04/24 05:03:05;;;;;;;3.00;2.43;;;;;;;;;;5073328;28;20240;-84
2023/04/24 05:05:32;;;;;;;2.50;2.40;;;;;;;;;;5056461;28;20232;-84
2023/04/24 05:08:00;;;;;;;3.43;2.53;;;;;;;;;;5073245;28;20595;-84
2023/04/24 05:10:28;;;;;;;2.30;2.20;;;;;;;;;;5065766;28;20234;-85
2023/04/24 05:15:59;;;;;;;2.70;2.50;;;;;;;;;;5081251;28;20232;-84
2023/04/24 05:18:26;;;;;;;3.30;2.50;;;;;;;;;;5073844;28;20202;-84
2023/04/24 05:20:53;;;;;;;3.77;2.50;;;;;;;;;;5074980;28;20240;-85
2023/04/24 05:23:21;;;;;;;2.97;2.70;;;;;;;;;;5078171;28;20198;-84
2023/04/24 05:25:48;;;;;;;2.80;2.60;;;;;;;;;;5087590;28;20706;-85
2023/04/24 05:28:30;;;;;;;2.87;2.67;;;;;;;;;;5089128;28;20206;-83
2023/04/24 05:30:59;;;;;;;2.90;2.70;;;;;;;;;;5075114;28;20240;-85
2023/04/24 05:33:26;;;;;;;3.67;2.53;;;;;;;;;;5062196;28;20237;-83
2023/04/24 05:35:53;;;;;;;2.97;2.73;;;;;;;;;;5073509;28;20232;-83
2023/04/24 05:38:21;;;;;;;3.03;2.83;;;;;;;;;;5070080;28;20214;-84
2023/04/24 05:40:48;;;;;;;2.70;2.50;;;;;;;;;;5067618;28;20522;-85
2023/04/24 05:43:15;;;;;;;3.10;2.63;;;;;;;;;;5061874;28;20206;-85
2023/04/24 05:45:42;;;;;;;2.20;2.10;;;;;;;;;;5064799;28;20230;-83
2023/04/24 05:48:09;;;;;;;3.33;2.60;;;;;;;;;;5067488;28;20210;-85
2023/04/24 05:50:36;;;;;;;3.43;2.70;;;;;;;;;;5064906;28;20234;-81
2023/04/24 05:53:03;;;;;;;3.17;2.63;;;;;;;;;;5056501;28;20229;-83
2023/04/24 05:55:33;;;;;;;2.60;2.40;;;;;;;;;;5057499;28;20225;-84
2023/04/24 05:58:00;;;;;;;2.90;2.60;;;;;;;;;;5051346;28;20206;-84
2023/04/24 06:00:28;;;;;;;3.20;2.90;;;;;;;;;;5051025;28;20230;-84
2023/04/24 06:02:55;;;;;;;2.67;2.53;;;;;;;;;;5047735;28;20207;-84
2023/04/24 06:05:22;;;;;;;3.30;2.80;;;;;;;;;;5043613;28;20225;-85
2023/04/24 06:07:49;;;;;;;3.27;3.07;;;;;;;;;;5046351;28;20668;-85
2023/04/24 06:10:16;;;;;;;3.80;3.50;;;;;;;;;;5048297;28;20699;-83
2023/04/24 06:12:45;;;;;;;3.40;3.10;;;;;;;;;;5051034;28;20602;-85
2023/04/24 06:15:12;;;;;;;3.10;2.80;;;;;;;;;;5063624;28;20709;-83
2023/04/24 06:17:39;;;;;;;5.07;3.30;;;;;;;;;;5063098;28;20239;-84
2023/04/24 06:20:08;;;;;;;3.10;2.80;;;;;;;;;;5062392;28;20224;-84
2023/04/24 06:22:35;;;;;;;3.50;3.20;;;;;;;;;;5071286;28;20201;-84
2023/04/24 06:25:02;;;;;;;3.23;2.83;;;;;;;;;;5059319;28;20202;-85
2023/04/24 06:27:29;;;;;;;3.10;2.87;;;;;;;;;;5051401;28;20229;-84
2023/04/24 06:29:57;;;;;;;4.17;2.70;;;;;;;;;;5050619;28;20237;-84
2023/04/24 06:32:25;;;;;;;4.40;2.90;;;;;;;;;;5051146;28;20226;-84
2023/04/24 06:34:52;;;;;;;3.13;2.83;;;;;;;;;;5068646;28;20209;-85
2023/04/24 06:37:20;;;;;;;3.83;3.13;;;;;;;;;;5071281;28;20216;-84
2023/04/24 06:39:47;;;;;;;3.07;2.87;;;;;;;;;;5070941;28;20234;-84
2023/04/24 06:42:14;;;;;;;3.20;3.00;;;;;;;;;;5070520;28;20221;-84
2023/04/24 06:44:41;;;;;;;4.40;2.93;;;;;;;;;;5061267;28;20206;-85
2023/04/24 06:47:10;;;;;;;4.07;3.43;;;;;;;;;;5050251;28;20308;-84
2023/04/24 06:49:38;;;;;;;3.60;3.30;;;;;;;;;;5050775;28;20237;-83
2023/04/24 06:52:05;;;;;;;3.60;3.30;;;;;;;;;;5050115;28;20229;-83
2023/04/24 06:54:32;;;;;;;3.57;3.10;;;;;;;;;;5050689;28;20293;-82
2023/04/24 06:57:00;;;;;;;3.83;3.40;;;;;;;;;;5045957;28;20723;-83
2023/04/24 06:59:27;;;;;;;4.47;4.03;;;;;;;;;;5059349;28;20765;-82
2023/04/24 07:01:54;;;;;;;5.27;4.03;;;;;;;;;;5035567;28;20222;-82
2023/04/24 07:04:24;;;;;;;5.50;4.20;;;;;;;;;;5036646;28;20213;-82
2023/04/24 07:06:54;;;;;;;4.80;3.90;;;;;;;;;;5039765;28;20636;-82
2023/04/24 07:09:21;;;;;;;7.77;4.60;;;;;;;;;;5038053;28;20704;-83
2023/04/24 07:11:49;;;;;;;5.40;4.33;;;;;;;;;;5037989;28;20227;-83
2023/04/24 07:14:16;;;;;;;4.27;3.87;;;;;;;;;;5044461;28;20207;-83
2023/04/24 07:16:43;;;;;;;5.13;3.80;;;;;;;;;;5028923;28;20233;-83
2023/04/24 07:19:10;;;;;;;3.63;3.33;;;;;;;;;;5041461;28;20221;-84
2023/04/24 07:21:38;;;;;;;4.17;3.63;;;;;;;;;;5045416;28;20245;-83
2023/04/24 07:24:09;;;;;;;3.87;3.57;;;;;;;;;;5046967;28;20202;-84
2023/04/24 07:26:36;;;;;;;3.63;3.33;;;;;;;;;;5040529;28;20582;-84
2023/04/24 07:29:03;;;;;;;4.90;3.47;;;;;;;;;;5042119;28;20213;-83
2023/04/24 07:31:30;;;;;;;3.47;3.17;;;;;;;;;;5051274;28;20234;-84
2023/04/24 07:33:58;;;;;;;4.27;3.87;;;;;;;;;;5042419;28;20206;-83
2023/04/24 07:36:25;;;;;;;4.20;3.20;;;;;;;;;;5041462;28;20231;-84
2023/04/24 07:38:54;;;;;;;3.27;2.97;;;;;;;;;;5038222;28;20220;-83
2023/04/24 07:41:21;;;;;;;3.70;3.40;;;;;;;;;;5032219;28;20242;-84
2023/04/24 07:43:48;;;;;;;4.20;3.80;;;;;;;;;;5046879;28;20684;-84
2023/04/24 07:46:15;;;;;;;5.30;3.60;;;;;;;;;;5040140;28;20238;-83
2023/04/24 07:48:42;;;;;;;4.53;4.10;;;;;;;;;;5040195;28;20214;-83
2023/04/24 07:51:12;;;;;;;3.60;3.30;;;;;;;;;;5039697;28;20233;-83
2023/04/24 07:53:39;;;;;;;2.90;2.70;;;;;;;;;;5036861;28;20284;-84
2023/04/24 07:56:07;;;;;;;3.30;3.03;;;;;;;;;;5031573;28;20238;-83
2023/04/24 07:58:34;;;;;;;3.33;3.13;;;;;;;;;;5034026;28;20210;-84
2023/04/24 08:01:01;;;;;;;3.97;3.40;;;;;;;;;;5032870;28;20242;-84
2023/04/24 08:03:28;;;;;;;3.40;2.87;;;;;;;;;;5032527;28;20587;-84
2023/04/24 08:05:55;;;;;;;3.50;3.20;;;;;;;;;;5031680;28;20227;-84
2023/04/24 08:08:23;;;;;;;3.30;3.00;;;;;;;;;;5031986;28;20214;-84
2023/04/24 08:10:50;;;;;;;3.03;2.80;;;;;;;;;;5037407;28;20615;-84
2023/04/24 08:13:18;;;;;;;3.57;3.27;;;;;;;;;;5045027;28;20256;-85
2023/04/24 08:15:45;;;;;;;3.17;2.97;;;;;;;;;;5035716;28;20238;-85
2023/04/24 08:18:13;;;;;;;3.17;2.87;;;;;;;;;;5043340;28;20210;-85
2023/04/24 08:20:40;;;;;;;3.40;2.97;;;;;;;;;;5039000;28;20233;-84
2023/04/24 08:23:07;;;;;;;3.43;3.10;;;;;;;;;;5043760;28;20210;-83
2023/04/24 08:25:35;;;;;;;2.77;2.57;;;;;;;;;;5052088;28;20233;-83
2023/04/24 08:28:03;;;;;;;2.77;2.57;;;;;;;;;;5035819;28;20202;-83
2023/04/24 08:30:32;;;;;;;3.93;2.47;;;;;;;;;;5045697;28;20976;-84
2023/04/24 08:32:59;;;;;;;2.50;2.30;;;;;;;;;;5043424;28;20562;-84
2023/04/24 08:35:29;;;;;;;2.53;2.27;;;;;;;;;;5051768;28;20225;-84
2023/04/24 08:37:57;;;;;;;2.37;2.10;;;;;;;;;;5054502;28;20198;-87
2023/04/24 08:40:28;;;;;;;2.10;1.90;;;;;;;;;;5044120;28;20594;-87
2023/04/24 08:42:56;;;;;;;2.13;2.03;;;;;;;;;;5051618;28;20668;-87
2023/04/24 08:45:25;;;;;;;2.97;2.20;;;;;;;;;;5043262;28;20265;-85
2023/04/24 08:47:55;;;;;;;2.13;1.97;;;;;;;;;;5042165;28;20218;-81
2023/04/24 08:50:22;;;;;;;6.97;2.13;;;;;;;;;;5031383;28;20285;-83
2023/04/24 08:52:52;;;;;;;2.10;2.00;;;;;;;;;;5056666;23;20231;-84
2023/04/24 08:55:20;;;;;;;3.63;2.30;;;;;;;;;;5029634;28;20262;-84
2023/04/24 08:57:51;;;;;;;2.40;2.20;;;;;;;;;;5029745;28;20217;-83
2023/04/24 09:00:19;;;;;;;2.03;1.93;;;;;;;;;;5024273;28;20238;-83
2023/04/24 09:02:47;;;;;;;2.83;2.40;;;;;;;;;;5025404;28;20704;-83
2023/04/24 09:05:15;;;;;;;2.77;2.57;;;;;;;;;;5032051;28;20608;-82
2023/04/24 09:07:46;;;;;;;2.40;2.20;;;;;;;;;;5032474;28;20636;-83
2023/04/24 09:10:14;;;;;;;4.90;2.17;;;;;;;;;;5032394;28;20280;-83
2023/04/24 09:12:42;;;;;;;2.57;2.37;;;;;;;;;;5032452;28;20700;-83
2023/04/24 09:15:09;;;;;;;6.03;2.70;;;;;;;;;;5032908;28;20210;-84
2023/04/24 09:17:36;;;;;;;2.77;2.47;;;;;;;;;;5032588;28;20225;-84
2023/04/24 09:20:04;;;;;;;2.60;2.40;;;;;;;;;;5031863;28;20215;-83
2023/04/24 09:22:32;;;;;;;4.07;2.57;;;;;;;;;;5032803;28;20246;-83
2023/04/24 09:25:12;;;;;;;4.73;2.93;;;;;;;;;;5026299;28;20208;-84
2023/04/24 09:27:42;;;;;;;3.53;2.47;;;;;;;;;;5032987;28;20794;-84
2023/04/24 09:30:10;;;;;;;2.50;2.30;;;;;;;;;;5032047;28;20217;-83
2023/04/24 09:32:37;;;;;;;2.30;2.20;;;;;;;;;;5032783;28;20230;-82
2023/04/24 09:35:08;;;;;;;2.23;2.10;;;;;;;;;;5031274;28;20213;-84
2023/04/24 09:37:41;;;;;;;3.47;2.50;;;;;;;;;;5032018;28;20214;-84
2023/04/24 09:40:18;;;;;;;2.70;2.50;;;;;;;;;;5026862;28;20498;-84
2023/04/24 09:42:46;;;;;;;2.03;1.93;;;;;;;;;;5032067;28;20585;-83
2023/04/24 09:45:13;;;;;;;2.60;2.40;;;;;;;;;;5031446;28;21035;-84
2023/04/24 09:47:41;;;;;;;2.17;2.07;;;;;;;;;;5031962;28;20735;-84
2023/04/24 09:50:12;;;;;;;3.20;2.23;;;;;;;;;;5026647;28;20215;-83
2023/04/24 09:52:43;;;;;;;2.60;2.40;;;;;;;;;;5031091;28;20234;-83
2023/04/24 09:55:18;;;;;;;2.57;2.37;;;;;;;;;;5030479;28;22252;-83
2023/04/24 09:57:50;;;;;;;2.47;2.27;;;;;;;;;;5030405;28;20256;-82
2023/04/24 10:00:23;;;;;;;3.20;2.70;;;;;;;;;;5027316;28;20258;-83
2023/04/24 10:02:57;;;;;;;2.70;2.50;;;;;;;;;;5028123;28;20602;-84
2023/04/24 10:05:28;;;;;;;2.40;2.20;;;;;;;;;;5026299;28;20231;-84
2023/04/24 10:07:59;;;;;;;2.60;2.40;;;;;;;;;;5033699;28;20672;-85
2023/04/24 10:10:27;;;;;;;2.20;2.10;;;;;;;;;;5033517;28;20223;-86
2023/04/24 10:12:55;;;;;;;3.73;2.17;;;;;;;;;;5021116;28;20284;-83
2023/04/24 10:15:22;;;;;;;3.20;2.80;;;;;;;;;;5031099;28;20230;-84
2023/04/24 10:17:52;;;;;;;2.50;2.30;;;;;;;;;;5031319;28;20570;-83
2023/04/24 10:20:20;;;;;;;3.03;2.83;;;;;;;;;;5029927;28;20263;-83
2023/04/24 10:22:50;;;;;;;3.60;2.60;;;;;;;;;;5031231;28;20346;-84
2023/04/24 10:25:20;;;;;;;2.77;2.37;;;;;;;;;;5030818;28;20250;-84
2023/04/24 10:27:47;;;;;;;2.53;2.33;;;;;;;;;;5031796;28;20205;-84
2023/04/24 10:30:15;;;;;;;4.43;2.70;;;;;;;;;;5029927;28;20258;-84
2023/04/24 10:32:42;;;;;;;2.40;2.20;;;;;;;;;;5031812;28;20245;-83
2023/04/24 10:35:10;;;;;;;3.73;2.87;;;;;;;;;;5022816;28;20298;-83
2023/04/24 10:37:38;;;;;;;2.50;2.30;;;;;;;;;;5030926;28;20207;-83
2023/04/24 10:40:07;;;;;;;2.67;2.30;;;;;;;;;;5027629;28;20211;-84
2023/04/24 10:42:35;;;;;;;2.57;2.37;;;;;;;;;;5031306;28;20219;-83
2023/04/24 10:45:06;;;;;;;2.00;1.90;;;;;;;;;;5030847;28;20203;-83
2023/04/24 10:47:41;;;;;;;2.27;2.17;;;;;;;;;;5030814;28;20203;-83
2023/04/24 10:50:09;;;;;;;1.80;1.70;;;;;;;;;;5030288;28;20206;-82
2023/04/24 10:52:45;;;;;;;3.60;2.20;;;;;;;;;;5033542;28;20257;-83
2023/04/24 10:55:14;;;;;;;2.40;2.20;;;;;;;;;;5035219;28;20250;-84
2023/04/24 10:58:02;;;;;;;2.00;1.90;;;;;;;;;;5036203;28;20226;-82
2023/04/24 11:00:29;;;;;;;2.60;2.40;;;;;;;;;;5035059;28;20230;-84
2023/04/24 11:02:57;;;;;;;2.33;1.87;;;;;;;;;;5035260;28;20223;-84
2023/04/24 11:05:24;;;;;;;2.50;2.40;;;;;;;;;;5033927;28;20226;-84
2023/04/24 11:08:10;;;;;;;3.00;2.50;;;;;;;;;;5034650;28;20207;-83
2023/04/24 11:10:39;;;;;;;2.63;2.20;;;;;;;;;;5028672;28;20237;-84
2023/04/24 11:13:08;;;;;;;2.90;2.50;;;;;;;;;;5032816;28;20235;-84
2023/04/24 11:15:35;;;;;;;2.60;2.10;;;;;;;;;;5034271;28;20226;-84
2023/04/24 11:18:02;;;;;;;2.40;2.20;;;;;;;;;;5034350;28;20257;-84
2023/04/24 11:20:29;;;;;;;3.13;2.83;;;;;;;;;;5034036;28;20237;-83
2023/04/24 11:22:57;;;;;;;2.77;2.43;;;;;;;;;;5034894;28;20222;-84
2023/04/24 11:25:24;;;;;;;2.37;2.20;;;;;;;;;;5031027;28;20228;-84
2023/04/24 11:27:52;;;;;;;2.73;2.07;;;;;;;;;;5030031;28;20797;-84
2023/04/24 11:30:21;;;;;;;2.70;2.50;;;;;;;;;;5033236;28;20234;-83
2023/04/24 11:32:49;;;;;;;2.50;2.30;;;;;;;;;;5033714;28;20234;-82
2023/04/24 11:35:17;;;;;;;3.63;2.90;;;;;;;;;;5033205;28;20696;-83
2023/04/24 11:37:45;;;;;;;2.60;2.40;;;;;;;;;;5025085;28;20217;-84
2023/04/24 11:40:15;;;;;;;3.50;2.63;;;;;;;;;;5032764;28;20281;-83
2023/04/24 11:42:42;;;;;;;2.87;2.57;;;;;;;;;;5031346;28;20693;-84
2023/04/24 11:45:10;;;;;;;2.80;2.60;;;;;;;;;;5032657;28;20210;-85
2023/04/24 11:47:39;;;;;;;2.40;2.20;;;;;;;;;;5033514;28;20321;-85
2023/04/24 11:50:07;;;;;;;2.53;2.33;;;;;;;;;;5033962;28;20202;-86
2023/04/24 11:52:35;;;;;;;3.30;3.00;;;;;;;;;;5033701;28;20241;-86
2023/04/24 11:55:03;;;;;;;3.87;2.60;;;;;;;;;;5033440;28;20209;-85
2023/04/24 11:57:33;;;;;;;2.57;2.37;;;;;;;;;;5033858;28;20297;-86
2023/04/24 12:00:00;;;;;;;3.23;2.93;;;;;;;;;;5034227;28;20221;-86
2023/04/24 12:02:28;;;;;;;3.87;2.87;;;;;;;;;;5032276;28;20776;-86
2023/04/24 12:04:56;;;;;;;3.67;3.37;;;;;;;;;;5032431;28;20214;-86
2023/04/24 12:07:25;;;;;;;6.67;4.30;;;;;;;;;;5033666;28;20627;-86
2023/04/24 12:09:59;;;;;;;7.10;4.57;;;;;;;;;;5033685;28;20198;-86
2023/04/24 12:12:27;;;;;;;5.07;3.93;;;;;;;;;;5017584;28;20223;-86
2023/04/24 12:14:55;;;;;;;4.13;2.87;;;;;;;;;;5025452;28;20214;-87
2023/04/24 12:17:25;;;;;;;3.40;3.10;;;;;;;;;;5033981;28;20665;-86
2023/04/24 12:19:53;;;;;;;3.20;2.90;;;;;;;;;;5033744;28;20199;-87
2023/04/24 12:22:21;;;;;;;2.80;2.60;;;;;;;;;;5017795;28;21180;-86
2023/04/24 12:24:58;;;;;;;2.90;2.70;;;;;;;;;;5032623;28;20668;-87
2023/04/24 12:27:25;;;;;;;3.10;2.63;;;;;;;;;;5032143;28;20301;-86
2023/04/24 12:29:53;;;;;;;2.80;2.60;;;;;;;;;;5032514;28;20207;-87
2023/04/24 12:32:21;;;;;;;2.80;2.57;;;;;;;;;;5022650;28;20261;-86
2023/04/24 12:34:48;;;;;;;2.60;2.40;;;;;;;;;;5027761;28;20222;-86
2023/04/24 12:37:15;;;;;;;3.13;2.50;;;;;;;;;;5031216;28;20245;-85
2023/04/24 12:40:00;;;;;;;3.43;2.50;;;;;;;;;;5031966;28;20211;-85
2023/04/24 12:42:27;;;;;;;3.07;2.87;;;;;;;;;;5032369;28;20264;-87
2023/04/24 12:44:58;;;;;;;2.80;2.60;;;;;;;;;;5031665;28;20362;-86
2023/04/24 12:47:25;;;;;;;3.60;2.60;;;;;;;;;;5031803;28;20606;-85
2023/04/24 12:49:52;;;;;;;3.03;2.57;;;;;;;;;;5031717;28;20195;-84
2023/04/24 12:52:20;;;;;;;3.07;2.77;;;;;;;;;;5032350;28;20649;-84
2023/04/24 12:54:49;;;;;;;4.87;3.17;;;;;;;;;;5025060;28;20231;-84
2023/04/24 12:57:16;;;;;;;3.60;3.30;;;;;;;;;;5029152;28;20234;-84
2023/04/24 12:59:43;;;;;;;5.53;2.80;;;;;;;;;;5030568;28;20202;-84
2023/04/24 13:02:10;;;;;;;3.97;3.67;;;;;;;;;;5030407;28;20238;-84
2023/04/24 13:04:37;;;;;;;3.03;2.83;;;;;;;;;;5030912;28;20215;-84
2023/04/24 13:07:05;;;;;;;3.50;3.30;;;;;;;;;;5030568;28;20230;-85
2023/04/24 13:09:33;;;;;;;3.47;3.00;;;;;;;;;;5030635;28;20206;-84
2023/04/24 13:12:01;;;;;;;2.60;2.40;;;;;;;;;;5031103;28;20264;-84
2023/04/24 13:14:28;;;;;;;3.20;2.90;;;;;;;;;;5031429;28;20234;-85
2023/04/24 13:16:55;;;;;;;3.47;2.93;;;;;;;;;;5030254;28;20230;-84
2023/04/24 13:19:22;;;;;;;4.07;3.67;;;;;;;;;;5031432;28;20213;-86
2023/04/24 13:21:49;;;;;;;4.57;3.47;;;;;;;;;;5031056;28;20230;-84
2023/04/24 13:24:17;;;;;;;3.17;2.57;;;;;;;;;;5031441;28;20291;-84
2023/04/24 13:26:44;;;;;;;2.90;2.70;;;;;;;;;;5030958;28;20226;-83
2023/04/24 13:29:12;;;;;;;3.80;2.70;;;;;;;;;;5030998;28;20619;-84
2023/04/24 13:31:40;;;;;;;3.40;2.80;;;;;;;;;;5030906;28;20242;-84
2023/04/24 13:34:07;;;;;;;4.03;2.87;;;;;;;;;;5031650;28;20231;-84
2023/04/24 13:36:35;;;;;;;4.87;2.90;;;;;;;;;;5030760;28;20237;-84
2023/04/24 13:39:03;;;;;;;2.93;2.73;;;;;;;;;;5030785;28;20301;-84
2023/04/24 13:41:30;;;;;;;3.47;2.30;;;;;;;;;;5022487;28;20226;-84
2023/04/24 13:43:57;;;;;;;3.53;2.80;;;;;;;;;;5023842;28;20196;-85
2023/04/24 13:46:25;;;;;;;3.93;2.57;;;;;;;;;;5028983;28;20241;-85
2023/04/24 13:48:53;;;;;;;2.77;2.50;;;;;;;;;;5029401;28;20198;-84
2023/04/24 13:51:20;;;;;;;3.73;2.70;;;;;;;;;;5023280;28;20655;-85
2023/04/24 13:53:47;;;;;;;2.20;2.03;;;;;;;;;;5030241;28;20586;-84
2023/04/24 13:56:14;;;;;;;3.37;2.60;;;;;;;;;;5029674;28;20245;-84
2023/04/24 13:58:41;;;;;;;2.77;2.47;;;;;;;;;;5030558;28;20199;-85
2023/04/24 14:01:08;;;;;;;3.07;2.40;;;;;;;;;;5030297;28;20245;-84
2023/04/24 14:03:38;;;;;;;3.03;2.20;;;;;;;;;;5030598;28;20237;-85
2023/04/24 14:06:06;;;;;;;2.80;2.60;;;;;;;;;;5030002;28;20238;-84
2023/04/24 14:08:33;;;;;;;2.30;2.03;;;;;;;;;;5018722;28;20211;-85
2023/04/24 14:11:00;;;;;;;3.30;3.00;;;;;;;;;;5023269;28;20732;-86
2023/04/24 14:13:27;;;;;;;4.00;2.93;;;;;;;;;;5030633;28;20322;-85
2023/04/24 14:15:54;;;;;;;2.73;2.47;;;;;;;;;;5031753;28;20233;-86
2023/04/24 14:18:21;;;;;;;3.67;2.93;;;;;;;;;;5029348;28;20675;-86
2023/04/24 14:20:50;;;;;;;4.63;2.80;;;;;;;;;;5025445;28;20231;-84
2023/04/24 14:23:17;;;;;;;2.73;2.53;;;;;;;;;;5031478;28;20223;-85
2023/04/24 14:25:44;;;;;;;3.90;2.73;;;;;;;;;;5030845;28;20226;-85
2023/04/24 14:28:11;;;;;;;2.77;2.40;;;;;;;;;;5033302;28;20206;-85
2023/04/24 14:30:40;;;;;;;3.70;2.70;;;;;;;;;;5032937;28;20238;-85
2023/04/24 14:33:07;;;;;;;4.10;2.57;;;;;;;;;;5035461;28;20749;-85
2023/04/24 14:35:35;;;;;;;4.13;2.60;;;;;;;;;;5031422;28;20226;-85
2023/04/24 14:38:03;;;;;;;2.97;2.20;;;;;;;;;;5031339;28;20211;-85
2023/04/24 14:40:32;;;;;;;2.97;2.53;;;;;;;;;;5022594;28;20226;-84
2023/04/24 14:42:59;;;;;;;2.93;2.63;;;;;;;;;;5025039;28;20230;-85
2023/04/24 14:45:26;;;;;;;2.40;2.20;;;;;;;;;;5029636;28;20238;-85
2023/04/24 14:47:53;;;;;;;3.20;2.57;;;;;;;;;;5027934;28;20199;-84
2023/04/24 14:50:21;;;;;;;2.53;2.33;;;;;;;;;;5031051;28;20240;-85